Latest Coastal Weather Observations for Bedout Island

IDW60701

Issued at 3:22 pm WST Saturday 18 April 2015 (issued every 10 minutes, with the page automatically refreshed every 10 minutes)

About coastal observations | Map of coastal stations | Coastal observations for WA | Marine services | Other Formats
Station Details ID: 004100 Name: BEDOUT ISLAND Lat: -19.59 Lon: 119.10 Height: 8.6 m
Data from the previous 72 hours. | See also: Recent months for locations in Western Australia
Date/Time
WST
Temp

°C
Wind Pressure Rain
since 9am
mm
Weather Cloud Vis
km
Sea
Height
m
Swell
Dir
 
Speed
knots
Gust
knots
hPa Trend Height
m
Period
s
Dir
18/03:00pm 29.5 ESE 14 16 1011.5 - - - - - - - - -
18/02:30pm 29.5 ESE 16 19 1011.6 - - - - - - - - -
18/02:00pm 29.5 ESE 18 20 1011.5 - - - - - - - - -
18/01:30pm 29.4 ESE 18 20 1011.9 - - - - - - - - -
18/01:00pm 29.4 ESE 20 23 1012.1 - - - - - - - - -
18/12:30pm 29.2 ESE 22 25 1012.3 - - - - - - - - -
18/12:00pm 29.0 ESE 20 24 1012.8 - - - - - - - - -
18/11:30am 28.7 E 20 24 1013.6 - - - - - - - - -
18/11:00am 28.4 E 22 28 1013.8 - - - - - - - - -
18/10:30am 28.4 E 19 22 1014.5 - - - - - - - - -
18/10:00am 28.3 ESE 22 25 1014.5 - - - - - - - - -
18/09:30am 28.3 E 22 26 1014.5 - - - - - - - - -
18/09:00am 28.2 ESE 22 26 1014.5 - - - - - - - - -
18/08:30am 28.0 ESE 23 27 1014.4 - - - - - - - - -
18/08:00am 27.8 ESE 23 26 1014.4 - - - - - - - - -
18/07:30am 27.6 ESE 21 24 1014.2 - - - - - - - - -
18/07:00am 27.3 ESE 22 25 1013.5 - - - - - - - - -
18/06:30am 27.3 ESE 24 29 1012.8 - - - - - - - - -
18/06:00am 27.3 ESE 23 27 1012.5 - - - - - - - - -
18/05:30am 27.3 ESE 22 25 1012.4 - - - - - - - - -
18/05:00am 27.1 SE 21 24 1012.4 - - - - - - - - -
18/04:30am 27.2 SE 19 23 1012.5 - - - - - - - - -
18/04:00am 27.3 SE 19 23 1012.3 - - - - - - - - -
18/03:30am 27.3 SE 20 23 1012.5 - - - - - - - - -
18/03:00am 28.3 SE 24 28 1012.3 - - - - - - - - -
18/02:30am 28.6 ESE 22 25 1012.5 - - - - - - - - -
18/02:00am 28.6 ESE 22 24 1012.3 - - - - - - - - -
18/01:30am 28.4 ESE 21 24 1012.5 - - - - - - - - -
18/01:00am 28.2 ESE 19 21 1012.7 - - - - - - - - -
18/12:30am 27.9 SE 19 22 1013.0 - - - - - - - - -
18/12:00am 28.0 SE 18 21 1013.0 - - - - - - - - -
 
Date/Time
WST
Temp

°C
Wind Pressure Rain
since 9am
mm
Weather Cloud Vis
km
Sea
Height
m
Swell
Dir
 
Speed
knots
Gust
knots
hPa Trend Height
m
Period
s
Dir
17/11:30pm 27.9 SE 18 21 1013.3 - - - - - - - - -
17/11:00pm 28.0 SE 18 21 1013.5 - - - - - - - - -
17/10:30pm 28.1 SE 20 23 1013.6 - - - - - - - - -
17/10:00pm 28.4 SE 19 22 1013.9 - - - - - - - - -
17/09:30pm 28.5 SSE 19 22 1014.0 - - - - - - - - -
17/09:00pm 28.6 SSE 18 21 1013.7 - - - - - - - - -
17/08:30pm 29.0 SSE 17 19 1013.6 - - - - - - - - -
17/08:00pm 29.1 SSE 15 17 1013.4 - - - - - - - - -
17/07:30pm 29.5 SE 17 19 1012.9 - - - - - - - - -
17/07:00pm 29.6 SSE 15 17 1012.5 - - - - - - - - -
17/06:30pm 29.4 SE 10 11 1012.1 - - - - - - - - -
17/06:00pm 29.4 ESE 9 11 1011.7 - - - - - - - - -
17/05:30pm 29.5 ESE 10 11 1011.8 - - - - - - - - -
17/05:00pm 29.9 ESE 11 13 1011.5 - - - - - - - - -
17/04:30pm 30.0 ESE 13 15 1011.3 - - - - - - - - -
17/04:00pm 31.1 SE 15 17 1011.3 - - - - - - - - -
17/03:30pm 30.3 SE 16 18 1011.2 - - - - - - - - -
17/03:00pm 30.3 SE 18 20 1010.9 - - - - - - - - -
17/02:30pm 30.7 ESE 17 20 1011.5 - - - - - - - - -
17/02:00pm 30.5 ESE 19 22 1011.5 - - - - - - - - -
17/01:30pm 30.7 ESE 20 23 1011.7 - - - - - - - - -
17/01:00pm 30.6 E 20 23 1012.1 - - - - - - - - -
17/12:30pm 30.6 ESE 20 23 1012.7 - - - - - - - - -
17/12:00pm 30.3 ESE 21 25 1013.3 - - - - - - - - -
17/11:30am 29.4 ESE 22 26 1014.0 - - - - - - - - -
17/11:00am 29.1 ESE 21 24 1014.4 - - - - - - - - -
17/10:30am 29.4 ESE 21 24 1014.7 - - - - - - - - -
17/10:00am 30.1 SE 21 24 1014.9 - - - - - - - - -
17/09:30am 29.2 SE 22 25 1015.1 - - - - - - - - -
17/09:00am 29.1 SE 20 23 1015.1 - - - - - - - - -
17/08:30am 28.5 SE 20 23 1015.2 - - - - - - - - -
17/08:00am 29.3 SSE 18 22 1015.1 - - - - - - - - -
17/07:30am 28.8 SSE 18 21 1014.7 - - - - - - - - -
17/07:00am 28.6 S 13 14 1014.4 - - - - - - - - -
17/06:30am 28.4 S 13 14 1014.1 - - - - - - - - -
17/06:00am 28.3 S 12 13 1013.8 - - - - - - - - -
17/05:30am 28.4 SSW 10 14 1013.9 - - - - - - - - -
17/05:00am 28.1 S 8 9 1013.5 - - - - - - - - -
17/04:30am 28.0 SW 7 7 1013.4 - - - - - - - - -
17/04:00am 27.9 SW 6 7 1013.4 - - - - - - - - -
17/03:30am 27.9 CALM 0 0 1013.6 - - - - - - - - -
17/03:00am 27.9 ESE 1 3 1013.7 - - - - - - - - -
17/02:30am 28.0 SE 4 5 1013.7 - - - - - - - - -
17/02:00am 28.0 SE 5 6 1013.9 - - - - - - - - -
17/01:30am 27.9 SE 5 6 1014.0 - - - - - - - - -
17/01:00am 28.6 SE 8 10 1014.5 - - - - - - - - -
17/12:30am 28.7 SSE 8 11 1014.6 - - - - - - - - -
17/12:00am 28.4 S 7 8 1014.6 - - - - - - - - -
 
Date/Time
WST
Temp

°C
Wind Pressure Rain
since 9am
mm
Weather Cloud Vis
km
Sea
Height
m
Swell
Dir
 
Speed
knots
Gust
knots
hPa Trend Height
m
Period
s
Dir
16/11:30pm 28.4 W 5 6 1014.8 - - - - - - - - -
16/11:00pm 28.8 W 10 11 1014.3 - - - - - - - - -
16/10:30pm 28.7 WNW 9 10 1014.4 - - - - - - - - -
16/10:00pm 28.9 WNW 10 10 1014.7 - - - - - - - - -
16/09:30pm 28.9 WNW 8 8 1014.8 - - - - - - - - -
16/09:00pm 28.7 WNW 8 9 1014.9 - - - - - - - - -
16/08:30pm 28.8 WNW 7 8 1015.1 - - - - - - - - -
16/08:00pm 29.1 WNW 8 10 1014.9 - - - - - - - - -
16/07:30pm 28.9 NW 7 8 1014.6 - - - - - - - - -
16/07:00pm 29.0 NW 7 8 1014.3 - - - - - - - - -
16/06:30pm 28.9 NNW 5 6 1014.0 - - - - - - - - -
16/06:00pm 28.9 NNW 6 7 1013.6 - - - - - - - - -
16/05:30pm 29.3 NNW 6 7 1013.5 - - - - - - - - -
16/05:00pm 29.5 NNW 7 8 1013.2 - - - - - - - - -
16/04:30pm 29.9 NW 7 8 1013.1 - - - - - - - - -
16/04:00pm 30.1 W 5 7 1013.2 - - - - - - - - -
16/03:30pm 30.4 W 7 8 1013.1 - - - - - - - - -
16/03:00pm 31.2 W 7 8 1012.9 - - - - - - - - -
16/02:30pm 30.7 WNW 5 6 1012.9 - - - - - - - - -
16/02:00pm 31.2 WNW 6 7 1013.1 - - - - - - - - -
16/01:30pm 31.5 WSW 5 6 1013.3 - - - - - - - - -
16/01:00pm 30.8 SW 4 6 1013.6 - - - - - - - - -
16/12:30pm 31.1 SW 4 6 1013.9 - - - - - - - - -
16/12:00pm 31.3 SW 5 5 1014.1 - - - - - - - - -
16/11:30am 31.9 SSW 6 7 1014.6 - - - - - - - - -
16/11:00am 31.8 S 6 7 1014.9 - - - - - - - - -
16/10:30am 30.7 S 8 9 1015.2 - - - - - - - - -
16/10:00am 30.8 S 8 9 1015.2 - - - - - - - - -
16/09:30am 30.8 S 10 12 1015.2 - - - - - - - - -
16/09:00am 30.1 S 12 14 1015.2 - - - - - - - - -
16/08:30am 29.2 S 11 14 1015.0 - - - - - - - - -
16/08:00am 30.0 SW 7 9 1014.9 - - - - - - - - -
16/07:30am 28.3 WSW 6 7 1014.8 - - - - - - - - -
16/07:00am 27.8 WSW 5 7 1014.6 - - - - - - - - -
16/06:30am 27.6 WSW 3 4 1014.2 - - - - - - - - -
16/06:00am 27.4 WSW 5 7 1013.9 - - - - - - - - -
16/05:30am 27.3 WSW 6 7 1013.7 - - - - - - - - -
16/05:00am 27.2 WSW 6 7 1013.6 - - - - - - - - -
16/04:30am 27.4 WSW 6 7 1013.5 - - - - - - - - -
16/04:00am 27.3 WSW 5 6 1013.6 - - - - - - - - -
16/03:30am 27.1 WSW 3 4 1013.5 - - - - - - - - -
16/03:00am 27.1 WSW 5 6 1013.4 - - - - - - - - -
16/02:30am 27.2 WSW 6 7 1013.7 - - - - - - - - -
16/02:00am 27.3 W 1 6 1014.1 - - - - - - - - -
16/01:30am 27.2 CALM 0 3 1014.3 - - - - - - - - -
16/01:00am 27.4 CALM 0 1 1014.3 - - - - - - - - -
16/12:30am 27.4 CALM 0 3 1014.3 - - - - - - - - -
16/12:00am 27.4 CALM 0 1 1014.3 - - - - - - - - -
 
Date/Time
WST
Temp

°C
Wind Pressure Rain
since 9am
mm
Weather Cloud Vis
km
Sea
Height
m
Swell
Dir
 
Speed
knots
Gust
knots
hPa Trend Height
m
Period
s
Dir
15/11:30pm 27.5 CALM 0 2 1014.8 - - - - - - - - -
15/11:00pm 27.7 CALM 0 2 1015.0 - - - - - - - - -
15/10:30pm 27.8 CALM 0 2 1015.2 - - - - - - - - -
15/10:00pm 27.9 CALM 0 2 1015.3 - - - - - - - - -
15/09:30pm 27.8 CALM 0 3 1015.4 - - - - - - - - -
15/09:00pm 28.0 CALM 0 2 1015.5 - - - - - - - - -
15/08:30pm 28.0 W 1 7 1015.5 - - - - - - - - -
15/08:00pm 28.0 W 9 11 1015.3 - - - - - - - - -
15/07:30pm 28.3 W 10 11 1015.1 - - - - - - - - -
15/07:00pm 28.2 W 9 11 1014.6 - - - - - - - - -
15/06:30pm 28.2 W 11 13 1014.2 - - - - - - - - -
15/06:00pm 28.3 W 10 12 1013.8 - - - - - - - - -
15/05:30pm 28.5 W 10 12 1013.7 - - - - - - - - -
15/05:00pm 28.9 W 9 11 1013.2 - - - - - - - - -
15/04:30pm 29.5 W 8 10 1012.9 - - - - - - - - -
15/04:00pm 30.0 W 8 9 1012.5 - - - - - - - - -
15/03:30pm 31.2 W 8 9 1012.3 - - - - - - - - -

Other Formats:

Comma delimited format used in spreadsheet applications
http://www.bom.gov.au/fwo/IDW60701/IDW60701.94310.axf

JavaScript Object Notation format (JSON) in row-major order
http://www.bom.gov.au/fwo/IDW60701/IDW60701.94310.json